createdAt,value
2023-05-06T00:00:59.096Z,10.50
2023-05-06T00:03:25.986Z,11.75
2023-05-06T00:05:52.709Z,11.02
2023-05-06T00:08:19.399Z,10.63
2023-05-06T00:10:45.930Z,9.82
2023-05-06T00:13:12.882Z,10.80
2023-05-06T00:15:40.098Z,7.43
2023-05-06T00:18:06.847Z,9.63
2023-05-06T00:20:33.403Z,9.10
2023-05-06T00:22:59.938Z,9.70
2023-05-06T00:25:26.649Z,9.80
2023-05-06T00:27:53.456Z,7.45
2023-05-06T00:30:20.097Z,9.70
2023-05-06T00:32:46.712Z,8.10
2023-05-06T00:35:13.335Z,7.30
2023-05-06T00:37:39.836Z,7.85
2023-05-06T00:40:07.186Z,7.68
2023-05-06T00:42:33.743Z,11.00
2023-05-06T00:45:00.282Z,7.28
2023-05-06T00:47:26.794Z,8.40
2023-05-06T00:49:53.700Z,8.75
2023-05-06T00:52:20.298Z,8.63
2023-05-06T00:54:46.785Z,10.13
2023-05-06T00:57:13.654Z,8.13
2023-05-06T00:59:40.344Z,11.18
2023-05-06T01:02:06.992Z,7.93
2023-05-06T01:04:33.655Z,9.63
2023-05-06T01:07:13.564Z,8.30
2023-05-06T01:09:47.670Z,9.55
2023-05-06T01:12:24.369Z,8.43
2023-05-06T01:15:08.540Z,11.77
2023-05-06T01:17:40.341Z,10.60
2023-05-06T01:20:10.454Z,10.45
2023-05-06T01:22:37.484Z,11.73
2023-05-06T01:25:04.392Z,11.90
2023-05-06T01:27:31.002Z,9.93
2023-05-06T01:29:58.217Z,8.98
2023-05-06T01:32:41.657Z,11.02
2023-05-06T01:35:24.549Z,10.15
2023-05-06T01:38:13.060Z,8.60
2023-05-06T01:40:41.634Z,8.88
2023-05-06T01:43:08.450Z,8.55
2023-05-06T01:45:36.791Z,8.73
2023-05-06T01:48:04.320Z,8.40
2023-05-06T01:50:31.218Z,9.65
2023-05-06T01:52:59.957Z,10.50
2023-05-06T01:55:27.023Z,9.13
2023-05-06T01:57:54.771Z,9.13
2023-05-06T02:00:21.290Z,9.45
2023-05-06T02:02:47.877Z,10.60
2023-05-06T02:05:14.511Z,11.43
2023-05-06T02:07:45.693Z,7.43
2023-05-06T02:10:12.618Z,8.40
2023-05-06T02:12:43.231Z,10.30
2023-05-06T02:15:10.398Z,8.57
2023-05-06T02:17:38.067Z,10.35
2023-05-06T02:20:05.925Z,10.63
2023-05-06T02:22:32.437Z,9.02
2023-05-06T02:24:58.961Z,11.20
2023-05-06T02:27:25.471Z,10.18
2023-05-06T02:29:52.012Z,8.88
2023-05-06T02:32:18.595Z,11.13
2023-05-06T02:34:45.187Z,9.27
2023-05-06T02:37:11.732Z,8.93
2023-05-06T02:39:38.233Z,10.10
2023-05-06T02:42:05.828Z,8.35
2023-05-06T02:44:32.363Z,8.68
2023-05-06T02:46:58.853Z,8.32
2023-05-06T02:49:25.444Z,9.88
2023-05-06T02:51:52.152Z,10.55
2023-05-06T02:54:18.582Z,8.60
2023-05-06T02:56:46.202Z,9.05
2023-05-06T02:59:13.891Z,13.52
2023-05-06T03:01:40.610Z,11.68
2023-05-06T03:04:07.212Z,9.15
2023-05-06T03:06:33.772Z,10.93
2023-05-06T03:09:00.243Z,8.18
2023-05-06T03:11:26.763Z,8.10
2023-05-06T03:13:53.400Z,9.50
2023-05-06T03:16:20.150Z,9.40
2023-05-06T03:18:50.662Z,12.52
2023-05-06T03:21:17.999Z,10.27
2023-05-06T03:23:46.765Z,10.73
2023-05-06T03:26:13.320Z,9.43
2023-05-06T03:28:42.728Z,10.00
2023-05-06T03:31:09.310Z,9.60
2023-05-06T03:33:36.587Z,11.63
2023-05-06T03:36:04.940Z,9.00
2023-05-06T03:38:32.215Z,11.55
2023-05-06T03:41:02.431Z,10.70
2023-05-06T03:43:29.724Z,10.32
2023-05-06T03:46:00.071Z,8.73
2023-05-06T03:48:26.701Z,10.93
2023-05-06T03:50:54.183Z,9.77
2023-05-06T03:53:21.523Z,8.73
2023-05-06T03:55:49.443Z,10.38
2023-05-06T03:58:16.426Z,9.27
2023-05-06T04:00:45.623Z,9.23
2023-05-06T04:03:12.676Z,9.40
2023-05-06T04:05:46.494Z,12.27
2023-05-06T04:08:17.099Z,8.65
2023-05-06T04:10:44.600Z,9.68
2023-05-06T04:13:18.015Z,8.65
2023-05-06T04:15:45.272Z,9.35
2023-05-06T04:18:19.217Z,9.93
2023-05-06T04:20:54.135Z,9.32
2023-05-06T04:23:21.366Z,9.38
2023-05-06T04:25:49.302Z,11.52
2023-05-06T04:28:17.649Z,10.82
2023-05-06T04:30:50.082Z,11.57
2023-05-06T04:33:19.541Z,9.93
2023-05-06T04:35:54.340Z,9.70
2023-05-06T04:38:25.606Z,10.93
2023-05-06T04:40:52.786Z,9.88
2023-05-06T04:43:19.592Z,8.73
2023-05-06T04:45:52.819Z,10.93
2023-05-06T04:48:23.993Z,7.63
2023-05-06T04:50:54.367Z,8.40
2023-05-06T04:53:21.031Z,8.30
2023-05-06T04:55:47.576Z,7.88
2023-05-06T04:58:15.299Z,11.10
2023-05-06T05:00:42.295Z,9.60
2023-05-06T05:03:09.427Z,10.57
2023-05-06T05:05:36.284Z,12.75
2023-05-06T05:08:06.211Z,12.52
2023-05-06T05:10:36.001Z,11.75
2023-05-06T05:13:02.576Z,11.20
2023-05-06T05:15:29.443Z,11.38
2023-05-06T05:17:56.252Z,11.30
2023-05-06T05:20:23.435Z,11.60
2023-05-06T05:22:50.224Z,12.73
2023-05-06T05:25:16.826Z,12.70
2023-05-06T05:27:44.938Z,10.65
2023-05-06T05:30:11.669Z,10.75
2023-05-06T05:32:39.563Z,11.95
2023-05-06T05:35:06.789Z,14.63
2023-05-06T05:37:33.571Z,12.10
2023-05-06T05:40:00.889Z,10.50
2023-05-06T05:42:28.071Z,12.00
2023-05-06T05:44:55.943Z,13.35
2023-05-06T05:47:22.714Z,12.23
2023-05-06T05:49:49.215Z,12.25
2023-05-06T05:52:16.370Z,14.10
2023-05-06T05:54:42.905Z,10.57
2023-05-06T05:57:09.496Z,10.43
2023-05-06T05:59:37.106Z,14.40
2023-05-06T06:02:05.240Z,12.65
2023-05-06T06:04:32.359Z,11.88
2023-05-06T06:06:59.138Z,11.02
2023-05-06T06:09:25.779Z,10.85
2023-05-06T06:11:52.715Z,10.10
2023-05-06T06:14:20.096Z,14.93
2023-05-06T06:16:48.120Z,11.23
2023-05-06T06:19:15.194Z,12.80
2023-05-06T06:21:42.765Z,13.35
2023-05-06T06:24:29.594Z,11.65
2023-05-06T06:26:56.531Z,11.88
2023-05-06T06:29:23.075Z,12.60
2023-05-06T06:31:49.675Z,11.85
2023-05-06T06:34:16.226Z,12.10
2023-05-06T06:36:45.199Z,12.15
2023-05-06T06:39:12.775Z,12.23
2023-05-06T06:41:39.466Z,11.70
2023-05-06T06:44:06.329Z,11.82
2023-05-06T06:46:32.952Z,11.43
2023-05-06T06:49:00.392Z,11.73
2023-05-06T06:51:27.000Z,10.80
2023-05-06T06:53:53.556Z,10.95
2023-05-06T06:56:20.179Z,11.95
2023-05-06T06:58:46.725Z,9.75
2023-05-06T07:01:13.289Z,11.63
2023-05-06T07:03:39.856Z,16.08
2023-05-06T07:06:06.479Z,10.32
2023-05-06T07:08:33.026Z,11.27
2023-05-06T07:10:59.574Z,11.00
2023-05-06T07:13:26.155Z,11.35
2023-05-06T07:15:52.642Z,9.48
2023-05-06T07:18:19.973Z,9.20
2023-05-06T07:20:46.632Z,9.30
2023-05-06T07:23:13.148Z,9.95
2023-05-06T07:25:39.701Z,10.15
2023-05-06T07:28:06.275Z,10.50
2023-05-06T07:30:32.918Z,12.27
2023-05-06T07:32:59.582Z,11.10
2023-05-06T07:35:26.224Z,9.43
2023-05-06T07:37:52.796Z,8.00
2023-05-06T07:40:19.407Z,7.00
2023-05-06T07:42:45.925Z,8.73
2023-05-06T07:45:12.555Z,8.55
2023-05-06T07:47:39.390Z,8.40
2023-05-06T07:50:06.932Z,10.35
2023-05-06T07:52:33.864Z,7.13
2023-05-06T07:55:00.561Z,5.07
2023-05-06T07:57:27.334Z,5.53
2023-05-06T07:59:54.179Z,7.22
2023-05-06T08:02:21.034Z,6.63
2023-05-06T08:04:48.989Z,7.55
2023-05-06T08:07:17.589Z,6.72
2023-05-06T08:09:44.145Z,6.80
2023-05-06T08:12:10.730Z,7.72
2023-05-06T08:14:37.249Z,7.68
2023-05-06T08:17:03.946Z,9.13
2023-05-06T08:19:30.788Z,7.15
2023-05-06T08:21:57.343Z,5.07
2023-05-06T08:24:24.054Z,5.32
2023-05-06T08:26:50.734Z,5.55
2023-05-06T08:29:17.335Z,5.45
2023-05-06T08:31:43.995Z,6.65
2023-05-06T08:34:10.552Z,5.13
2023-05-06T08:36:37.096Z,4.65
2023-05-06T08:39:03.616Z,5.55
2023-05-06T08:41:30.800Z,5.93
2023-05-06T08:43:57.315Z,6.70
2023-05-06T08:46:24.027Z,3.95
2023-05-06T08:48:51.013Z,5.07
2023-05-06T08:51:18.281Z,4.05
2023-05-06T08:53:48.063Z,3.83
2023-05-06T08:56:15.407Z,4.28
2023-05-06T08:58:44.806Z,3.85
2023-05-06T09:01:11.558Z,4.82
2023-05-06T09:03:38.230Z,3.58
2023-05-06T09:06:04.940Z,5.20
2023-05-06T09:08:31.421Z,4.30
2023-05-06T09:10:58.081Z,4.03
2023-05-06T09:13:24.924Z,4.22
2023-05-06T09:15:53.529Z,7.22
2023-05-06T09:18:20.106Z,4.68
2023-05-06T09:20:48.537Z,3.95
2023-05-06T09:23:16.731Z,4.95
2023-05-06T09:25:45.853Z,4.60
2023-05-06T09:28:13.487Z,5.30
2023-05-06T09:30:44.706Z,4.18
2023-05-06T09:33:12.039Z,4.70
2023-05-06T09:35:43.347Z,5.05
2023-05-06T09:38:10.520Z,6.55
2023-05-06T09:40:37.936Z,3.80
2023-05-06T09:43:05.821Z,4.53
2023-05-06T09:45:33.206Z,6.10
2023-05-06T09:48:01.101Z,4.72
2023-05-06T09:50:28.190Z,6.63
2023-05-06T09:52:56.552Z,4.77
2023-05-06T09:55:26.512Z,5.07
2023-05-06T09:57:53.213Z,4.32
2023-05-06T10:00:26.777Z,4.47
2023-05-06T10:02:54.625Z,4.75
2023-05-06T10:05:21.777Z,5.10
2023-05-06T10:07:48.372Z,4.47
2023-05-06T10:10:15.871Z,5.35
2023-05-06T10:12:43.228Z,4.80
2023-05-06T10:15:10.175Z,6.18
2023-05-06T10:17:39.673Z,4.65
2023-05-06T10:20:09.273Z,4.95
2023-05-06T10:23:08.315Z,4.20
2023-05-06T10:25:42.574Z,4.75
2023-05-06T10:28:23.149Z,4.53
2023-05-06T10:30:58.596Z,3.75
2023-05-06T10:33:26.033Z,6.25
2023-05-06T10:35:55.807Z,4.43
2023-05-06T10:38:30.290Z,5.40
2023-05-06T10:40:58.444Z,4.38
2023-05-06T10:43:33.252Z,5.03
2023-05-06T10:46:10.868Z,4.85
2023-05-06T10:48:39.026Z,4.20
2023-05-06T10:51:21.289Z,7.82
2023-05-06T10:54:04.571Z,6.38
2023-05-06T10:56:38.165Z,4.72
2023-05-06T10:59:12.224Z,4.35
2023-05-06T11:01:40.843Z,4.18
2023-05-06T11:04:14.399Z,4.22
2023-05-06T11:06:51.480Z,4.40
2023-05-06T11:09:21.455Z,4.22
2023-05-06T11:11:52.316Z,5.22
2023-05-06T11:14:29.965Z,4.80
2023-05-06T11:16:58.579Z,6.77
2023-05-06T11:19:27.229Z,4.22
2023-05-06T11:21:57.614Z,4.15
2023-05-06T11:24:31.281Z,6.32
2023-05-06T11:26:59.772Z,3.97
2023-05-06T11:31:56.405Z,3.92
2023-05-06T11:34:32.657Z,4.65
2023-05-06T11:37:04.546Z,5.20
2023-05-06T11:39:36.674Z,4.40
2023-05-06T11:42:07.402Z,3.97
2023-05-06T11:44:36.001Z,3.95
2023-05-06T11:47:05.676Z,5.45
2023-05-06T11:49:43.571Z,3.97
2023-05-06T11:52:11.342Z,5.63
2023-05-06T11:54:42.208Z,3.75
2023-05-06T11:57:09.365Z,4.28
2023-05-06T11:59:37.967Z,4.18
2023-05-06T12:02:09.690Z,4.45
2023-05-06T12:04:47.383Z,4.60
2023-05-06T12:07:15.847Z,3.90
2023-05-06T12:12:10.814Z,5.03
2023-05-06T12:14:37.976Z,3.65
2023-05-06T12:17:05.187Z,4.70
2023-05-06T12:19:32.268Z,5.88
2023-05-06T12:22:18.360Z,3.63
2023-05-06T12:24:46.184Z,4.13
2023-05-06T12:27:12.785Z,4.85
2023-05-06T12:29:39.548Z,3.78
2023-05-06T12:32:10.867Z,4.30
2023-05-06T12:34:41.253Z,4.43
2023-05-06T12:37:08.735Z,4.55
2023-05-06T12:39:41.192Z,4.28
2023-05-06T12:42:07.757Z,4.32
2023-05-06T12:44:38.290Z,4.43
2023-05-06T12:47:09.922Z,3.90
2023-05-06T12:49:45.586Z,4.38
2023-05-06T12:52:12.326Z,4.20
2023-05-06T12:54:38.893Z,4.60
2023-05-06T12:57:05.815Z,5.60
2023-05-06T12:59:32.605Z,4.18
2023-05-06T13:01:59.254Z,3.45
2023-05-06T13:04:26.333Z,4.88
2023-05-06T13:06:52.973Z,4.18
2023-05-06T13:09:19.645Z,6.53
2023-05-06T13:11:46.258Z,3.97
2023-05-06T13:14:13.477Z,4.25
2023-05-06T13:16:42.017Z,5.47
2023-05-06T13:19:32.823Z,4.15
2023-05-06T13:22:01.078Z,4.72
2023-05-06T13:24:28.070Z,4.00
2023-05-06T13:26:56.358Z,4.45
2023-05-06T13:29:23.734Z,4.35
2023-05-06T13:31:51.330Z,4.40
2023-05-06T13:34:18.144Z,4.35
2023-05-06T13:37:04.958Z,4.15
2023-05-06T13:39:31.529Z,5.43
2023-05-06T13:41:58.089Z,4.15
2023-05-06T13:44:24.750Z,4.50
2023-05-06T13:46:52.469Z,4.25
2023-05-06T13:49:19.175Z,4.13
2023-05-06T13:51:45.682Z,3.67
2023-05-06T13:54:12.267Z,4.00
2023-05-06T13:56:38.834Z,5.95
2023-05-06T13:59:05.439Z,3.83
2023-05-06T14:01:32.324Z,3.60
2023-05-06T14:03:58.931Z,4.22
2023-05-06T14:06:25.463Z,4.20
2023-05-06T14:08:51.975Z,3.40
2023-05-06T14:11:18.461Z,3.70
2023-05-06T14:13:45.059Z,3.92
2023-05-06T14:16:11.607Z,3.65
2023-05-06T14:18:38.166Z,4.30
2023-05-06T14:21:04.805Z,3.95
2023-05-06T14:23:32.430Z,3.85
2023-05-06T14:25:59.010Z,4.65
2023-05-06T14:28:25.584Z,4.75
2023-05-06T14:30:53.419Z,3.80
2023-05-06T14:33:19.991Z,4.50
2023-05-06T14:35:46.464Z,3.63
2023-05-06T14:38:13.104Z,5.60
2023-05-06T14:40:39.841Z,3.90
2023-05-06T14:43:09.161Z,4.07
2023-05-06T14:45:35.819Z,3.97
2023-05-06T14:48:02.627Z,4.18
2023-05-06T14:50:30.010Z,3.95
2023-05-06T14:52:56.580Z,4.63
2023-05-06T14:55:23.210Z,5.03
2023-05-06T14:57:49.802Z,4.13
2023-05-06T15:00:17.179Z,3.95
2023-05-06T15:02:43.857Z,4.50
2023-05-06T15:05:10.972Z,3.38
2023-05-06T15:07:37.977Z,4.95
2023-05-06T15:10:05.022Z,4.45
2023-05-06T15:12:31.662Z,4.38
2023-05-06T15:14:58.301Z,3.40
2023-05-06T15:17:25.016Z,5.13
2023-05-06T15:19:51.680Z,3.65
2023-05-06T15:22:18.328Z,3.75
2023-05-06T15:24:45.324Z,4.53
2023-05-06T15:27:11.865Z,4.63
2023-05-06T15:29:39.236Z,5.30
2023-05-06T15:32:06.263Z,3.97
2023-05-06T15:34:33.079Z,5.57
2023-05-06T15:37:01.825Z,3.67
2023-05-06T15:39:28.547Z,3.75
2023-05-06T15:41:55.184Z,3.60
2023-05-06T15:44:21.736Z,6.45
2023-05-06T15:46:48.287Z,4.25
2023-05-06T15:49:45.377Z,4.68
2023-05-06T15:52:01.719Z,3.53
2023-05-06T15:54:28.837Z,4.07
2023-05-06T15:56:56.286Z,4.82
2023-05-06T15:59:22.973Z,4.87
2023-05-06T16:04:19.191Z,4.25
2023-05-06T16:06:45.993Z,4.07
2023-05-06T16:09:12.584Z,3.35
2023-05-06T16:11:39.079Z,3.88
2023-05-06T16:14:05.704Z,3.30
2023-05-06T16:16:32.300Z,3.50
2023-05-06T16:18:58.868Z,3.25
2023-05-06T16:21:25.401Z,3.75
2023-05-06T16:23:52.011Z,4.28
2023-05-06T16:26:18.622Z,3.85
2023-05-06T16:28:45.581Z,4.13
2023-05-06T16:31:12.212Z,3.85
2023-05-06T16:33:38.896Z,3.72
2023-05-06T16:36:05.878Z,3.40
2023-05-06T16:38:32.418Z,3.58
2023-05-06T16:40:59.044Z,4.38
2023-05-06T16:43:25.682Z,3.80
2023-05-06T16:45:52.224Z,3.42
2023-05-06T16:48:18.935Z,4.72
2023-05-06T16:50:45.984Z,4.88
2023-05-06T16:53:12.627Z,5.55
2023-05-06T16:55:39.142Z,4.35
2023-05-06T16:58:05.674Z,3.88
2023-05-06T17:00:32.296Z,4.63
2023-05-06T17:02:59.097Z,3.60
2023-05-06T17:05:28.003Z,3.63
2023-05-06T17:07:54.601Z,4.03
2023-05-06T17:10:21.989Z,4.45
2023-05-06T17:12:48.602Z,4.05
2023-05-06T17:15:15.213Z,4.60
2023-05-06T17:17:41.945Z,4.57
2023-05-06T17:20:08.982Z,5.10
2023-05-06T17:22:35.757Z,4.70
2023-05-06T17:25:02.679Z,3.92
2023-05-06T17:27:29.313Z,4.22
2023-05-06T17:29:55.892Z,3.90
2023-05-06T17:32:22.853Z,3.65
2023-05-06T17:34:49.456Z,4.28
2023-05-06T17:37:15.996Z,3.70
2023-05-06T17:39:42.638Z,3.95
2023-05-06T17:42:09.942Z,3.67
2023-05-06T17:44:38.041Z,3.88
2023-05-06T17:47:04.682Z,3.58
2023-05-06T17:49:31.289Z,3.47
2023-05-06T17:52:01.666Z,3.60
2023-05-06T17:54:32.434Z,4.05
2023-05-06T17:57:00.777Z,4.45
2023-05-06T17:59:28.148Z,3.85
2023-05-06T18:01:54.885Z,5.47
2023-05-06T18:04:21.493Z,4.45
2023-05-06T18:06:48.221Z,4.35
2023-05-06T18:09:14.927Z,4.57
2023-05-06T18:11:41.453Z,4.00
2023-05-06T18:14:08.830Z,4.00
2023-05-06T18:16:35.613Z,4.00
2023-05-06T18:19:04.578Z,4.80
2023-05-06T18:21:31.977Z,5.38
2023-05-06T18:24:10.335Z,5.93
2023-05-06T18:26:45.265Z,5.15
2023-05-06T18:29:12.759Z,3.92
2023-05-06T18:31:39.616Z,4.30
2023-05-06T18:34:06.375Z,4.68
2023-05-06T18:36:34.889Z,4.25
2023-05-06T18:39:01.904Z,5.53
2023-05-06T18:41:28.520Z,6.03
2023-05-06T18:43:55.137Z,5.75
2023-05-06T18:46:21.836Z,6.13
2023-05-06T18:48:48.618Z,4.53
2023-05-06T18:51:17.065Z,7.03
2023-05-06T18:53:44.413Z,3.72
2023-05-06T18:56:11.293Z,4.68
2023-05-06T18:58:39.334Z,5.03
2023-05-06T19:01:09.729Z,3.05
2023-05-06T19:03:37.414Z,3.42
2023-05-06T19:06:07.648Z,3.95
2023-05-06T19:08:34.238Z,3.70
2023-05-06T19:11:01.675Z,3.42
2023-05-06T19:13:28.579Z,3.75
2023-05-06T19:15:56.046Z,3.33
2023-05-06T19:18:22.798Z,5.57
2023-05-06T19:20:49.394Z,4.05
2023-05-06T19:23:15.997Z,4.95
2023-05-06T19:25:42.515Z,5.88
2023-05-06T19:28:09.560Z,9.80
2023-05-06T19:30:36.978Z,7.10
2023-05-06T19:33:04.569Z,6.68
2023-05-06T19:35:31.274Z,7.30
2023-05-06T19:37:58.635Z,7.55
2023-05-06T19:40:25.476Z,8.48
2023-05-06T19:42:52.231Z,8.50
2023-05-06T19:45:19.533Z,10.18
2023-05-06T19:47:46.386Z,14.90
2023-05-06T19:50:15.478Z,22.10
2023-05-06T19:52:42.400Z,28.20
2023-05-06T19:55:09.875Z,44.42
2023-05-06T19:57:37.464Z,31.33
2023-05-06T20:00:05.946Z,23.38
2023-05-06T20:02:33.370Z,11.35
2023-05-06T20:05:00.568Z,9.05
2023-05-06T20:07:27.601Z,9.15
2023-05-06T20:09:56.057Z,9.52
2023-05-06T20:12:23.591Z,8.73
2023-05-06T20:14:50.435Z,8.52
2023-05-06T20:17:17.125Z,11.00
2023-05-06T20:19:47.869Z,9.10
2023-05-06T20:22:14.722Z,10.05
2023-05-06T20:24:42.273Z,8.45
2023-05-06T20:27:09.143Z,10.45
2023-05-06T20:29:35.829Z,9.27
2023-05-06T20:32:02.562Z,7.68
2023-05-06T20:34:29.232Z,7.57
2023-05-06T20:36:56.158Z,9.80
2023-05-06T20:39:25.546Z,8.27
2023-05-06T20:41:52.197Z,7.22
2023-05-06T20:44:18.989Z,5.90
2023-05-06T20:46:45.599Z,6.32
2023-05-06T20:49:12.221Z,7.18
2023-05-06T20:51:38.870Z,8.50
2023-05-06T20:54:05.723Z,11.43
2023-05-06T20:56:32.607Z,11.98
2023-05-06T20:58:59.313Z,12.30
2023-05-06T21:01:27.091Z,10.98
2023-05-06T21:03:53.869Z,9.68
2023-05-06T21:06:20.597Z,10.40
2023-05-06T21:08:47.243Z,12.20
2023-05-06T21:11:14.002Z,11.32
2023-05-06T21:13:40.986Z,12.30
2023-05-06T21:16:07.687Z,15.15
2023-05-06T21:18:34.707Z,11.30
2023-05-06T21:21:01.391Z,21.35
2023-05-06T21:23:27.995Z,21.52
2023-05-06T21:25:54.630Z,27.98
2023-05-06T21:28:21.337Z,15.70
2023-05-06T21:30:48.026Z,13.20
2023-05-06T21:33:14.790Z,12.07
2023-05-06T21:35:41.333Z,14.38
2023-05-06T21:38:07.912Z,13.77
2023-05-06T21:40:34.468Z,12.93
2023-05-06T21:43:01.416Z,10.02
2023-05-06T21:45:28.073Z,10.70
2023-05-06T21:47:54.860Z,9.88
2023-05-06T21:50:21.553Z,6.97
2023-05-06T21:52:48.145Z,6.40
2023-05-06T21:55:15.854Z,9.23
2023-05-06T21:57:43.498Z,7.00
2023-05-06T22:00:12.433Z,9.43
2023-05-06T22:02:40.152Z,11.05
2023-05-06T22:05:07.977Z,8.43
2023-05-06T22:07:34.824Z,8.75
2023-05-06T22:10:01.591Z,8.25
2023-05-06T22:12:28.212Z,7.18
2023-05-06T22:14:54.735Z,6.50
2023-05-06T22:17:22.087Z,7.90
2023-05-06T22:19:48.802Z,13.50
2023-05-06T22:22:15.981Z,8.10
2023-05-06T22:24:42.677Z,7.75
2023-05-06T22:27:09.216Z,8.95
2023-05-06T22:29:36.007Z,6.45
2023-05-06T22:32:03.320Z,7.68
2023-05-06T22:34:30.104Z,7.20
2023-05-06T22:36:58.343Z,8.98
2023-05-06T22:39:27.291Z,6.40
2023-05-06T22:41:53.875Z,7.22
2023-05-06T22:44:21.066Z,10.10
2023-05-06T22:46:47.623Z,7.47
2023-05-06T22:49:15.943Z,8.75
2023-05-06T22:51:42.708Z,7.03
2023-05-06T22:54:09.315Z,8.75
2023-05-06T22:56:36.105Z,11.32
2023-05-06T22:59:02.807Z,10.07
2023-05-06T23:01:32.258Z,9.13
2023-05-06T23:03:59.630Z,8.38
2023-05-06T23:06:30.889Z,9.20
2023-05-06T23:08:57.843Z,6.82
2023-05-06T23:11:24.750Z,6.47
2023-05-06T23:13:51.279Z,8.93
2023-05-06T23:16:17.842Z,7.00
2023-05-06T23:18:45.884Z,6.20
2023-05-06T23:21:12.649Z,5.43
2023-05-06T23:23:39.319Z,5.20
2023-05-06T23:26:05.999Z,5.65
2023-05-06T23:28:32.608Z,6.25
2023-05-06T23:30:59.244Z,5.53
2023-05-06T23:33:25.846Z,5.70
2023-05-06T23:35:52.425Z,5.93
2023-05-06T23:38:19.391Z,5.93
2023-05-06T23:40:46.142Z,6.22
2023-05-06T23:43:12.700Z,5.20
2023-05-06T23:45:39.236Z,5.78
2023-05-06T23:48:06.024Z,6.07
2023-05-06T23:50:32.723Z,5.75
2023-05-06T23:52:59.474Z,7.47
2023-05-06T23:55:29.106Z,6.60
2023-05-06T23:57:55.856Z,6.82
